Time;durP1;ratioP1;P1;durP2;ratioP2;P2;SDS_P1;SDS_P2;PMS_P1;PMS_P2;Temp;Humidity;BMP_temperature;BMP_pressure;BME280_temperature;BME280_humidity;BME280_pressure;Samples;Min_cycle;Max_cycle;Signal;HPM_P1;HPM_P2
2024/03/11 00:00:17;;;;;;;3.73;2.37;;;8.10;98.00;;;;;;4994775;28;20450;-67
2024/03/11 00:02:46;;;;;;;3.60;2.40;;;7.90;98.00;;;;;;4994844;28;20838;-67
2024/03/11 00:05:16;;;;;;;4.90;2.73;;;7.90;98.00;;;;;;4994827;28;20463;-67
2024/03/11 00:07:46;;;;;;;3.13;2.27;;;7.90;98.00;;;;;;4992362;28;20470;-67
2024/03/11 00:10:15;;;;;;;2.30;1.97;;;7.80;98.00;;;;;;4993761;28;20480;-66
2024/03/11 00:12:49;;;;;;;2.50;1.90;;;7.70;98.00;;;;;;4994408;28;20899;-65
2024/03/11 00:15:16;;;;;;;3.20;2.20;;;7.80;98.00;;;;;;4978279;28;20485;-66
2024/03/11 00:17:46;;;;;;;2.10;1.80;;;7.80;98.00;;;;;;4994532;28;20452;-66
2024/03/11 00:20:13;;;;;;;2.23;1.90;;;7.80;98.00;;;;;;4994143;28;21054;-66
2024/03/11 00:22:40;;;;;;;2.60;2.10;;;7.70;98.00;;;;;;4994402;28;20459;-65
2024/03/11 00:25:09;;;;;;;3.67;2.10;;;7.80;98.00;;;;;;4994454;28;20459;-65
2024/03/11 00:27:37;;;;;;;2.13;1.70;;;7.80;98.00;;;;;;4993892;28;20841;-66
2024/03/11 00:30:06;;;;;;;3.03;1.90;;;7.70;98.00;;;;;;4976801;28;20546;-66
2024/03/11 00:32:36;;;;;;;2.30;1.93;;;7.80;98.00;;;;;;4994293;28;20476;-66
2024/03/11 00:35:06;;;;;;;2.87;2.20;;;7.90;98.00;;;;;;4994114;28;20542;-66
2024/03/11 00:37:33;;;;;;;3.80;2.27;;;7.90;98.00;;;;;;4994303;28;20873;-66
2024/03/11 00:40:00;;;;;;;3.07;1.90;;;7.90;98.00;;;;;;4994035;28;20462;-66
2024/03/11 00:42:27;;;;;;;2.90;2.07;;;7.80;98.00;;;;;;4993707;28;20457;-66
2024/03/11 00:44:54;;;;;;;2.23;2.00;;;7.80;98.00;;;;;;4993953;28;20471;-66
2024/03/11 00:47:22;;;;;;;2.73;1.83;;;7.70;98.00;;;;;;4993896;28;20664;-65
2024/03/11 00:49:49;;;;;;;2.80;2.13;;;7.70;98.00;;;;;;4993706;28;20463;-66
2024/03/11 00:52:17;;;;;;;2.93;2.00;;;7.70;98.00;;;;;;4993764;28;20862;-66
2024/03/11 00:54:45;;;;;;;2.47;1.83;;;7.70;98.00;;;;;;4993690;28;20829;-66
2024/03/11 00:57:14;;;;;;;3.70;2.47;;;7.70;98.00;;;;;;4976559;28;20526;-66
2024/03/11 00:59:41;;;;;;;3.20;2.10;;;7.60;98.00;;;;;;4993733;28;20504;-65
2024/03/11 01:02:09;;;;;;;2.80;1.90;;;7.60;98.00;;;;;;4976399;28;20475;-66
2024/03/11 01:04:37;;;;;;;2.80;2.03;;;7.70;98.00;;;;;;4993593;28;20968;-66
2024/03/11 01:07:04;;;;;;;3.07;2.07;;;7.80;98.00;;;;;;4993585;28;20807;-66
2024/03/11 01:09:32;;;;;;;2.87;1.97;;;7.80;98.00;;;;;;4993446;28;20468;-66
2024/03/11 01:12:00;;;;;;;2.40;1.80;;;7.80;98.00;;;;;;4993419;28;20455;-66
2024/03/11 01:14:27;;;;;;;3.13;1.90;;;7.90;98.00;;;;;;4976028;28;20480;-66
2024/03/11 01:16:55;;;;;;;2.80;1.70;;;8.00;98.00;;;;;;4993308;28;20456;-65
2024/03/11 01:19:23;;;;;;;3.70;1.73;;;8.10;98.00;;;;;;4993425;28;20958;-65
2024/03/11 01:21:50;;;;;;;2.77;1.90;;;8.10;98.00;;;;;;4993479;28;20449;-65
2024/03/11 01:24:18;;;;;;;1.83;1.60;;;8.00;98.00;;;;;;4993666;28;20809;-65
2024/03/11 01:26:47;;;;;;;2.73;1.73;;;8.00;98.00;;;;;;4992887;28;20472;-66
2024/03/11 01:29:15;;;;;;;3.63;1.70;;;8.00;98.00;;;;;;4993353;28;20515;-66
2024/03/11 01:31:44;;;;;;;2.90;1.70;;;8.10;98.00;;;;;;4975686;28;20542;-66
2024/03/11 01:34:13;;;;;;;3.10;1.90;;;8.00;98.00;;;;;;4993297;28;20480;-66
2024/03/11 01:36:40;;;;;;;3.40;1.70;;;8.00;98.00;;;;;;4975983;28;20546;-65
2024/03/11 01:39:09;;;;;;;2.70;1.93;;;8.10;98.00;;;;;;4975669;28;20459;-65
2024/03/11 01:41:37;;;;;;;2.23;1.80;;;8.20;98.00;;;;;;4992793;28;20774;-65
2024/03/11 01:44:07;;;;;;;1.90;1.63;;;8.10;98.00;;;;;;4992904;28;20526;-66
2024/03/11 01:46:35;;;;;;;1.63;1.60;;;8.10;98.00;;;;;;4992889;28;20518;-66
2024/03/11 01:49:04;;;;;;;1.67;1.60;;;8.10;98.00;;;;;;4992722;28;20829;-66
2024/03/11 01:51:33;;;;;;;1.70;1.50;;;8.00;98.00;;;;;;5338904;23;20495;-70
2024/03/11 01:54:00;;;;;;;1.90;1.60;;;7.90;98.00;;;;;;4975775;28;20490;-70
2024/03/11 01:56:28;;;;;;;2.33;1.70;;;7.90;98.00;;;;;;4991939;28;20484;-70
2024/03/11 01:58:57;;;;;;;2.80;1.70;;;7.90;98.00;;;;;;4992745;28;20816;-70
2024/03/11 02:01:27;;;;;;;1.90;1.70;;;7.90;98.00;;;;;;4992546;28;20997;-70
2024/03/11 02:03:54;;;;;;;2.03;1.53;;;7.80;98.00;;;;;;4992616;28;20484;-70
2024/03/11 02:06:21;;;;;;;2.10;1.60;;;7.80;98.00;;;;;;4992470;28;20468;-70
2024/03/11 02:08:49;;;;;;;2.07;1.70;;;7.80;98.00;;;;;;4992914;28;20483;-70
2024/03/11 02:11:17;;;;;;;1.97;1.73;;;7.80;98.00;;;;;;4993083;28;20459;-70
2024/03/11 02:13:45;;;;;;;2.70;2.00;;;7.80;98.00;;;;;;4993139;28;20472;-70
2024/03/11 02:16:12;;;;;;;2.70;1.87;;;7.90;98.00;;;;;;4993070;28;20492;-70
2024/03/11 02:18:41;;;;;;;2.43;1.70;;;7.90;98.00;;;;;;4993173;28;20463;-70
2024/03/11 02:21:08;;;;;;;2.07;1.77;;;7.90;98.00;;;;;;4992779;28;20460;-70
2024/03/11 02:23:38;;;;;;;2.03;1.70;;;8.00;98.00;;;;;;4992942;28;20459;-70
2024/03/11 02:26:06;;;;;;;2.43;1.80;;;7.90;98.00;;;;;;4992847;28;20456;-70
2024/03/11 02:28:41;;;;;;;3.07;1.87;;;7.90;98.00;;;;;;4992979;28;20511;-70
2024/03/11 02:31:09;;;;;;;2.70;1.77;;;7.90;98.00;;;;;;4992593;28;20466;-70
2024/03/11 02:33:36;;;;;;;2.13;1.60;;;7.90;98.00;;;;;;4992756;28;20483;-70
2024/03/11 02:36:03;;;;;;;2.17;1.60;;;7.90;98.00;;;;;;4992844;28;20456;-70
2024/03/11 02:38:30;;;;;;;2.07;1.70;;;7.90;98.00;;;;;;4992620;28;20822;-70
2024/03/11 02:41:00;;;;;;;2.27;1.60;;;7.90;98.00;;;;;;4975562;28;20464;-70
2024/03/11 02:43:27;;;;;;;1.60;1.60;;;8.00;98.00;;;;;;4975879;28;20483;-70
2024/03/11 02:45:55;;;;;;;2.10;1.50;;;8.00;98.00;;;;;;4992725;28;20534;-70
2024/03/11 02:48:23;;;;;;;2.20;1.53;;;8.00;98.00;;;;;;4992769;28;20558;-70
2024/03/11 02:50:50;;;;;;;2.37;1.53;;;8.10;98.00;;;;;;4992525;28;20806;-70
2024/03/11 02:53:18;;;;;;;1.70;1.43;;;8.00;98.00;;;;;;4992805;28;20467;-70
2024/03/11 02:55:45;;;;;;;1.70;1.50;;;8.00;98.00;;;;;;4992649;28;20517;-70
2024/03/11 02:58:14;;;;;;;2.20;1.70;;;8.00;98.00;;;;;;4992518;28;20453;-70
2024/03/11 03:00:41;;;;;;;1.70;1.60;;;8.10;98.00;;;;;;4975454;28;20522;-70
2024/03/11 03:03:08;;;;;;;3.03;1.80;;;8.00;98.00;;;;;;4975419;28;20473;-70
2024/03/11 03:05:36;;;;;;;2.13;1.60;;;8.00;98.00;;;;;;4975059;28;20461;-70
2024/03/11 03:08:03;;;;;;;3.27;1.90;;;8.00;98.00;;;;;;4992377;28;20453;-70
2024/03/11 03:10:30;;;;;;;1.70;1.50;;;8.00;98.00;;;;;;4992548;28;20459;-70
2024/03/11 03:12:57;;;;;;;2.00;1.50;;;8.00;98.00;;;;;;4991753;28;20452;-70
2024/03/11 03:15:26;;;;;;;2.23;1.30;;;7.90;98.00;;;;;;4991986;28;20495;-70
2024/03/11 03:17:53;;;;;;;3.00;1.70;;;7.90;98.00;;;;;;4992080;28;20460;-70
2024/03/11 03:20:20;;;;;;;1.93;1.43;;;7.90;98.00;;;;;;4992213;28;20813;-70
2024/03/11 03:22:47;;;;;;;1.53;1.47;;;7.90;98.00;;;;;;4992280;28;20448;-70
2024/03/11 03:25:15;;;;;;;2.27;1.40;;;7.90;98.00;;;;;;4992467;28;20456;-70
2024/03/11 03:27:42;;;;;;;2.17;1.50;;;8.00;98.00;;;;;;4992078;28;20455;-70
2024/03/11 03:30:09;;;;;;;2.20;1.47;;;7.90;98.00;;;;;;4992202;28;20466;-70
2024/03/11 03:32:38;;;;;;;2.10;1.40;;;8.00;98.00;;;;;;4992356;28;21117;-70
2024/03/11 03:35:06;;;;;;;2.53;1.57;;;8.00;98.00;;;;;;4991926;28;20547;-70
2024/03/11 03:37:34;;;;;;;1.30;1.20;;;8.00;98.00;;;;;;4992307;28;20517;-70
2024/03/11 03:40:03;;;;;;;1.63;1.40;;;7.90;98.00;;;;;;4992014;28;20457;-70
2024/03/11 03:42:30;;;;;;;2.20;1.70;;;7.80;98.00;;;;;;4993911;28;20943;-70
2024/03/11 03:44:57;;;;;;;1.40;1.40;;;7.80;98.00;;;;;;4995585;28;20464;-70
2024/03/11 03:47:24;;;;;;;1.37;1.33;;;7.80;98.00;;;;;;4995400;28;20474;-70
2024/03/11 03:49:53;;;;;;;1.40;1.30;;;7.80;98.00;;;;;;4995493;28;20456;-70
2024/03/11 03:52:20;;;;;;;1.40;1.30;;;7.80;98.00;;;;;;4995402;28;20469;-70
2024/03/11 03:54:47;;;;;;;1.40;1.33;;;7.80;98.00;;;;;;4995460;28;20491;-70
2024/03/11 03:57:18;;;;;;;2.00;1.50;;;7.80;98.00;;;;;;4994616;28;20455;-70
2024/03/11 03:59:46;;;;;;;2.17;1.43;;;7.80;98.00;;;;;;4995432;28;20452;-70
2024/03/11 04:02:13;;;;;;;1.50;1.30;;;7.70;98.00;;;;;;4995529;28;20979;-70
2024/03/11 04:04:40;;;;;;;1.60;1.40;;;7.80;98.00;;;;;;4995583;28;20464;-70
2024/03/11 04:07:09;;;;;;;1.47;1.23;;;7.80;98.00;;;;;;4995285;28;20555;-70
2024/03/11 04:09:38;;;;;;;1.60;1.50;;;7.80;98.00;;;;;;4995367;28;20454;-70
2024/03/11 04:12:06;;;;;;;1.80;1.50;;;7.80;98.00;;;;;;4994366;28;20792;-70
2024/03/11 04:14:33;;;;;;;1.50;1.40;;;7.80;98.00;;;;;;4995622;28;20484;-70
2024/03/11 04:17:00;;;;;;;2.03;1.50;;;7.80;98.00;;;;;;4977815;28;20459;-70
2024/03/11 04:19:27;;;;;;;2.53;1.50;;;7.60;98.00;;;;;;4995509;28;20802;-70
2024/03/11 04:21:54;;;;;;;1.40;1.30;;;7.60;98.00;;;;;;4995396;28;20832;-70
2024/03/11 04:24:25;;;;;;;1.70;1.33;;;7.60;98.00;;;;;;4995303;28;20476;-70
2024/03/11 04:26:53;;;;;;;4.00;1.50;;;7.60;98.00;;;;;;4995065;28;20444;-70
2024/03/11 04:29:20;;;;;;;1.83;1.57;;;7.60;98.00;;;;;;4995116;28;20459;-70
2024/03/11 04:31:47;;;;;;;1.90;1.67;;;7.70;98.00;;;;;;4995214;28;20463;-70
2024/03/11 04:34:14;;;;;;;1.90;1.50;;;7.60;98.00;;;;;;4995165;28;20462;-70
2024/03/11 04:36:42;;;;;;;2.87;2.00;;;7.50;98.00;;;;;;4995204;28;20455;-70
2024/03/11 04:39:14;;;;;;;2.93;1.90;;;7.40;98.00;;;;;;4995037;28;20460;-70
2024/03/11 04:41:43;;;;;;;3.20;1.90;;;7.20;98.00;;;;;;4995035;28;20452;-70
2024/03/11 04:44:10;;;;;;;2.93;1.80;;;7.00;98.00;;;;;;4977888;28;20455;-70
2024/03/11 04:46:38;;;;;;;1.67;1.63;;;6.90;98.00;;;;;;4994876;28;20460;-70
2024/03/11 04:49:05;;;;;;;2.63;1.60;;;6.80;98.00;;;;;;4977759;28;20515;-69
2024/03/11 04:51:32;;;;;;;3.10;1.70;;;6.70;98.00;;;;;;4994698;28;20503;-70
2024/03/11 04:54:00;;;;;;;2.70;1.70;;;6.60;98.00;;;;;;4993950;28;20458;-70
2024/03/11 04:56:30;;;;;;;1.73;1.60;;;6.50;98.00;;;;;;4994591;28;21008;-70
2024/03/11 04:58:59;;;;;;;2.23;1.60;;;6.50;98.00;;;;;;4994542;28;20555;-70
2024/03/11 05:01:28;;;;;;;1.90;1.70;;;6.50;98.00;;;;;;4994342;28;20455;-70
2024/03/11 05:03:57;;;;;;;1.70;1.60;;;6.50;98.00;;;;;;4994149;28;20538;-70
2024/03/11 05:06:24;;;;;;;2.00;1.80;;;6.60;98.00;;;;;;4994116;28;20474;-70
2024/03/11 05:08:52;;;;;;;3.27;2.03;;;6.50;98.00;;;;;;4994209;28;20463;-70
2024/03/11 05:11:19;;;;;;;3.87;1.67;;;6.50;98.00;;;;;;4994379;28;20854;-70
2024/03/11 05:13:49;;;;;;;2.70;2.00;;;6.50;98.00;;;;;;4994220;28;20474;-70
2024/03/11 05:16:21;;;;;;;4.60;2.10;;;6.40;98.00;;;;;;4993820;28;20487;-70
2024/03/11 05:18:48;;;;;;;2.70;1.80;;;6.30;98.00;;;;;;4993996;28;20582;-70
2024/03/11 05:21:16;;;;;;;3.40;2.40;;;6.20;98.00;;;;;;4994100;28;20462;-70
2024/03/11 05:23:43;;;;;;;2.47;1.60;;;6.20;98.00;;;;;;4993924;28;20537;-70
2024/03/11 05:26:13;;;;;;;2.17;1.63;;;6.20;98.00;;;;;;4993839;28;20459;-70
2024/03/11 05:28:40;;;;;;;2.10;1.60;;;6.20;98.00;;;;;;4993902;28;20948;-70
2024/03/11 05:31:08;;;;;;;2.57;1.80;;;6.30;98.00;;;;;;4993804;28;20500;-70
2024/03/11 05:33:36;;;;;;;1.97;1.60;;;6.00;98.00;;;;;;4993881;28;20459;-70
2024/03/11 05:36:04;;;;;;;2.10;1.50;;;6.10;98.00;;;;;;4993494;28;20865;-70
2024/03/11 05:38:31;;;;;;;2.43;1.80;;;6.00;98.00;;;;;;4993819;28;20467;-70
2024/03/11 05:40:59;;;;;;;2.13;1.90;;;6.00;98.00;;;;;;4993659;28;20463;-70
2024/03/11 05:43:26;;;;;;;2.27;1.83;;;6.00;98.00;;;;;;4993997;28;20463;-70
2024/03/11 05:45:53;;;;;;;1.83;1.40;;;5.90;98.00;;;;;;4993588;28;20455;-70
2024/03/11 05:48:26;;;;;;;3.20;1.50;;;5.90;98.00;;;;;;4993706;28;20464;-70
2024/03/11 05:51:02;;;;;;;2.23;1.50;;;5.90;98.00;;;;;;4993387;28;20812;-70
2024/03/11 05:53:30;;;;;;;2.10;1.67;;;6.00;98.00;;;;;;4993585;28;20461;-70
2024/03/11 05:55:57;;;;;;;1.73;1.50;;;5.90;98.00;;;;;;4975978;28;20505;-70
2024/03/11 05:58:26;;;;;;;1.43;1.40;;;5.80;98.00;;;;;;4993445;28;20490;-70
2024/03/11 06:00:54;;;;;;;2.23;1.30;;;5.70;98.00;;;;;;4993446;28;20542;-70
2024/03/11 06:03:21;;;;;;;2.90;1.70;;;5.70;98.00;;;;;;4993398;28;20547;-70
2024/03/11 06:05:48;;;;;;;2.20;1.70;;;5.70;98.00;;;;;;4992577;28;20461;-70
2024/03/11 06:08:17;;;;;;;1.40;1.33;;;5.60;98.00;;;;;;4995191;28;20454;-71
2024/03/11 06:10:44;;;;;;;2.17;1.47;;;5.70;98.00;;;;;;5011394;28;20537;-70
2024/03/11 06:13:11;;;;;;;1.57;1.40;;;5.70;98.00;;;;;;5010773;28;20485;-70
2024/03/11 06:15:41;;;;;;;1.50;1.40;;;5.60;98.00;;;;;;5011660;28;20502;-70
2024/03/11 06:18:10;;;;;;;3.30;1.60;;;5.60;98.00;;;;;;5011419;28;20784;-70
2024/03/11 06:20:37;;;;;;;2.33;1.57;;;5.50;98.00;;;;;;5012674;28;20856;-70
2024/03/11 06:23:04;;;;;;;1.70;1.53;;;5.50;98.00;;;;;;5012775;28;20466;-70
2024/03/11 06:25:33;;;;;;;1.67;1.43;;;5.50;98.00;;;;;;5012540;28;20458;-70
2024/03/11 06:28:01;;;;;;;1.70;1.47;;;5.50;98.00;;;;;;5012323;28;20450;-70
2024/03/11 06:30:28;;;;;;;2.23;1.67;;;5.60;98.00;;;;;;5011916;28;20467;-70
2024/03/11 06:32:55;;;;;;;4.00;1.80;;;5.60;98.00;;;;;;4994285;28;20462;-70
2024/03/11 06:35:22;;;;;;;1.90;1.50;;;5.60;98.00;;;;;;5012110;28;21142;-70
2024/03/11 06:37:52;;;;;;;1.77;1.50;;;5.40;98.00;;;;;;5012201;28;20454;-70
2024/03/11 06:40:21;;;;;;;1.73;1.53;;;5.30;98.00;;;;;;5012798;28;20454;-70
2024/03/11 06:42:51;;;;;;;2.97;2.00;;;5.30;98.00;;;;;;5012198;28;20534;-70
2024/03/11 06:45:20;;;;;;;8.77;4.00;;;5.50;98.00;;;;;;5012036;28;20454;-70
2024/03/11 06:47:47;;;;;;;4.20;2.47;;;5.50;98.00;;;;;;5012165;28;20513;-70
2024/03/11 06:50:14;;;;;;;3.43;2.40;;;5.50;98.00;;;;;;5012316;28;20457;-70
2024/03/11 06:52:41;;;;;;;3.00;2.10;;;5.50;98.00;;;;;;4994640;28;20477;-70
2024/03/11 06:55:11;;;;;;;3.20;1.90;;;5.60;98.00;;;;;;5011750;28;20454;-70
2024/03/11 06:57:41;;;;;;;3.57;2.23;;;5.60;98.00;;;;;;5011813;28;20453;-70
2024/03/11 07:00:18;;;;;;;3.33;1.93;;;5.60;98.00;;;;;;4995182;28;20471;-75
2024/03/11 07:02:46;;;;;;;4.43;2.17;;;5.60;98.00;;;;;;5012190;28;20465;-74
2024/03/11 07:05:26;;;;;;;2.50;1.80;;;5.70;98.00;;;;;;5011798;28;20508;-74
2024/03/11 07:07:55;;;;;;;3.20;1.80;;;5.80;98.00;;;;;;5011625;28;20488;-74
2024/03/11 07:10:23;;;;;;;2.10;1.93;;;5.80;98.00;;;;;;5011877;28;20458;-75
2024/03/11 07:12:50;;;;;;;3.10;1.83;;;5.90;98.00;;;;;;5011896;28;20466;-75
2024/03/11 07:15:19;;;;;;;2.73;2.10;;;6.00;98.00;;;;;;5011724;28;20457;-75
2024/03/11 07:17:46;;;;;;;2.60;2.00;;;6.10;98.00;;;;;;5015667;28;20477;-75
2024/03/11 07:20:14;;;;;;;3.97;2.20;;;6.20;98.00;;;;;;5015772;28;20949;-74
2024/03/11 07:22:42;;;;;;;3.57;2.40;;;6.30;98.00;;;;;;5015834;28;20458;-74
2024/03/11 07:25:11;;;;;;;5.30;2.83;;;6.40;98.00;;;;;;5015636;28;20466;-75
2024/03/11 07:27:38;;;;;;;3.53;2.57;;;6.50;98.00;;;;;;5015787;28;20527;-74
2024/03/11 07:30:09;;;;;;;4.20;2.90;;;6.50;98.00;;;;;;4997954;28;20520;-75
2024/03/11 07:32:40;;;;;;;3.83;2.60;;;6.50;98.00;;;;;;5015985;28;20874;-75
2024/03/11 07:35:07;;;;;;;5.13;2.93;;;6.60;98.00;;;;;;5015577;28;20937;-74
2024/03/11 07:37:36;;;;;;;5.07;2.53;;;6.70;98.00;;;;;;5015673;28;20459;-75
2024/03/11 07:40:11;;;;;;;4.23;2.70;;;6.70;98.00;;;;;;5016128;28;20459;-75
2024/03/11 07:42:38;;;;;;;3.37;2.40;;;6.80;98.00;;;;;;5016941;28;20459;-76
2024/03/11 07:45:10;;;;;;;4.63;2.30;;;6.90;98.00;;;;;;5016277;28;20490;-75
2024/03/11 07:47:40;;;;;;;2.70;2.13;;;7.00;98.00;;;;;;5015646;28;20887;-74
2024/03/11 07:50:13;;;;;;;4.50;2.10;;;7.00;98.00;;;;;;5016137;28;20510;-75
2024/03/11 07:52:41;;;;;;;2.37;1.97;;;7.10;98.00;;;;;;5016990;28;20463;-75
2024/03/11 07:55:09;;;;;;;2.73;1.80;;;7.10;98.00;;;;;;5015597;28;21018;-75
2024/03/11 07:57:37;;;;;;;2.47;1.70;;;7.20;98.00;;;;;;4990560;28;20488;-75
2024/03/11 08:00:05;;;;;;;3.50;1.80;;;7.30;98.00;;;;;;4997845;28;20467;-75
2024/03/11 08:02:33;;;;;;;1.97;1.70;;;7.40;98.00;;;;;;4997294;28;21082;-75
2024/03/11 08:05:11;;;;;;;1.97;1.70;;;7.60;98.00;;;;;;4994846;28;20456;-75
2024/03/11 08:07:38;;;;;;;1.80;1.63;;;7.70;98.00;;;;;;4994712;28;20462;-75
2024/03/11 08:10:12;;;;;;;2.47;1.57;;;7.90;98.00;;;;;;5008062;28;20478;-76
2024/03/11 08:12:41;;;;;;;2.30;1.73;;;8.10;98.00;;;;;;5016015;28;20452;-75
2024/03/11 08:15:12;;;;;;;2.53;1.50;;;8.30;98.00;;;;;;5014987;28;20462;-76
2024/03/11 08:17:41;;;;;;;2.50;1.80;;;8.50;98.00;;;;;;5015023;28;20848;-75
2024/03/11 08:20:16;;;;;;;1.90;1.40;;;8.70;98.00;;;;;;5015393;28;20452;-75
2024/03/11 08:22:45;;;;;;;2.10;1.60;;;8.90;98.00;;;;;;4999127;28;20477;-75
2024/03/11 08:25:12;;;;;;;2.33;1.60;;;9.10;98.00;;;;;;5015049;28;20452;-73
2024/03/11 08:27:39;;;;;;;1.80;1.50;;;9.30;98.00;;;;;;5014162;28;20502;-75
2024/03/11 08:30:09;;;;;;;1.87;1.47;;;9.40;98.00;;;;;;5014285;28;20461;-75
2024/03/11 08:32:37;;;;;;;1.80;1.40;;;9.50;98.00;;;;;;5013964;28;20462;-75
2024/03/11 08:35:04;;;;;;;1.80;1.50;;;9.50;98.00;;;;;;5014075;28;20460;-75
2024/03/11 08:37:34;;;;;;;1.90;1.60;;;9.70;98.00;;;;;;5013758;28;20484;-78
2024/03/11 08:40:04;;;;;;;1.63;1.30;;;9.80;98.00;;;;;;5014211;28;20460;-73
2024/03/11 08:42:31;;;;;;;1.87;1.60;;;10.00;98.00;;;;;;4996305;28;20856;-74
2024/03/11 08:44:58;;;;;;;5.10;1.30;;;10.20;98.00;;;;;;5014643;28;20463;-74
2024/03/11 08:47:27;;;;;;;2.23;1.60;;;10.30;98.00;;;;;;5016254;28;20456;-73
2024/03/11 08:49:54;;;;;;;2.60;1.70;;;10.60;98.00;;;;;;5014094;28;21140;-78
2024/03/11 08:52:22;;;;;;;2.33;1.60;;;10.80;98.00;;;;;;5014233;28;20490;-76
2024/03/11 08:54:51;;;;;;;1.87;1.57;;;10.90;98.00;;;;;;5014440;28;20455;-76
2024/03/11 08:57:18;;;;;;;1.93;1.53;;;11.00;98.00;;;;;;5013685;28;20567;-74
2024/03/11 08:59:45;;;;;;;1.50;1.40;;;11.10;98.00;;;;;;5012797;28;20463;-76
2024/03/11 09:02:14;;;;;;;1.90;1.60;;;11.20;98.00;;;;;;5014110;28;20778;-75
2024/03/11 09:04:41;;;;;;;3.00;1.67;;;11.30;98.00;;;;;;4997491;28;20468;-74
2024/03/11 09:07:09;;;;;;;2.47;1.60;;;11.30;98.00;;;;;;5015831;28;20451;-77
2024/03/11 09:09:36;;;;;;;1.80;1.63;;;11.30;98.00;;;;;;5024086;28;20469;-75
2024/03/11 09:12:05;;;;;;;2.37;1.50;;;11.60;98.00;;;;;;5014218;28;20973;-74
2024/03/11 09:14:33;;;;;;;1.50;1.30;;;11.70;98.00;;;;;;5014307;28;20465;-75
2024/03/11 09:17:01;;;;;;;1.70;1.60;;;11.90;98.00;;;;;;5013789;28;20840;-74
2024/03/11 09:19:30;;;;;;;1.40;1.40;;;11.90;98.00;;;;;;5015628;28;20467;-76
2024/03/11 09:21:58;;;;;;;1.90;1.50;;;12.10;98.00;;;;;;4996585;28;20464;-75
2024/03/11 09:24:26;;;;;;;1.60;1.50;;;12.20;98.00;;;;;;5013832;28;20456;-79
2024/03/11 09:26:53;;;;;;;1.67;1.37;;;12.40;98.00;;;;;;5013732;28;20456;-75
2024/03/11 09:29:23;;;;;;;1.53;1.40;;;12.50;98.00;;;;;;5013753;28;20539;-74
2024/03/11 09:31:50;;;;;;;1.83;1.50;;;12.60;98.00;;;;;;5013463;28;20459;-75
2024/03/11 09:34:18;;;;;;;2.57;1.70;;;12.50;98.00;;;;;;5013500;28;20925;-75
2024/03/11 09:36:45;;;;;;;3.10;1.60;;;12.60;98.00;;;;;;5013312;28;20498;-75
2024/03/11 09:39:13;;;;;;;4.03;1.47;;;12.80;98.00;;;;;;5012214;28;20448;-75
2024/03/11 09:41:43;;;;;;;2.27;1.43;;;13.00;98.00;;;;;;4996040;28;20457;-75
2024/03/11 09:44:16;;;;;;;1.90;1.50;;;13.30;98.00;;;;;;5012671;28;20469;-70
2024/03/11 09:46:46;;;;;;;2.43;1.50;;;13.40;98.00;;;;;;5013337;28;20561;-71
2024/03/11 09:49:14;;;;;;;3.00;1.50;;;14.00;98.00;;;;;;5012939;28;20489;-71
2024/03/11 09:51:44;;;;;;;2.27;1.73;;;14.60;98.00;;;;;;5013102;28;20893;-71
2024/03/11 09:54:13;;;;;;;3.37;1.60;;;15.40;98.00;;;;;;5013335;28;20458;-76
2024/03/11 09:56:41;;;;;;;2.50;1.73;;;15.80;98.00;;;;;;5013184;28;20498;-76
2024/03/11 09:59:10;;;;;;;2.70;1.70;;;15.70;98.00;;;;;;5013178;28;20459;-76
2024/03/11 10:01:44;;;;;;;3.23;2.00;;;15.60;98.00;;;;;;5013173;28;20514;-76
2024/03/11 10:04:15;;;;;;;2.03;1.50;;;15.30;98.00;;;;;;5013227;28;20452;-77
2024/03/11 10:06:42;;;;;;;3.33;1.70;;;14.80;98.00;;;;;;4995447;28;20451;-76
2024/03/11 10:09:18;;;;;;;2.37;1.70;;;15.00;98.00;;;;;;5012981;28;20476;-76
2024/03/11 10:12:07;;;;;;;1.80;1.40;;;15.10;98.00;;;;;;5013093;28;20539;-77
2024/03/11 10:14:35;;;;;;;1.70;1.40;;;15.30;98.00;;;;;;5013141;28;20937;-77
2024/03/11 10:17:20;;;;;;;2.17;1.70;;;15.40;98.00;;;;;;5012660;28;20487;-78
2024/03/11 10:19:51;;;;;;;1.50;1.37;;;15.50;98.00;;;;;;4995712;28;20460;-77
2024/03/11 10:22:24;;;;;;;2.10;1.60;;;15.70;98.00;;;;;;5012818;28;20467;-74
2024/03/11 10:24:54;;;;;;;2.33;1.50;;;15.80;98.00;;;;;;4994863;28;20579;-75
2024/03/11 10:27:22;;;;;;;1.60;1.50;;;15.90;98.00;;;;;;5012239;28;20462;-75
2024/03/11 10:29:50;;;;;;;3.67;1.60;;;16.20;98.00;;;;;;5012845;28;20938;-76
2024/03/11 10:32:35;;;;;;;2.10;1.60;;;16.30;98.00;;;;;;5012515;28;20522;-76
2024/03/11 10:35:06;;;;;;;2.13;1.43;;;16.50;97.50;;;;;;5011445;28;20828;-75
2024/03/11 10:37:33;;;;;;;1.93;1.70;;;16.50;98.00;;;;;;5012046;28;20491;-76
2024/03/11 10:40:00;;;;;;;2.07;1.50;;;16.10;98.00;;;;;;5012312;28;20461;-75
2024/03/11 10:42:32;;;;;;;2.60;1.70;;;16.30;98.00;;;;;;4994467;28;20466;-75
2024/03/11 10:44:59;;;;;;;2.63;1.70;;;16.70;98.00;;;;;;5011698;28;20505;-75
2024/03/11 10:47:30;;;;;;;2.57;1.50;;;16.60;97.90;;;;;;5011945;28;20462;-74
2024/03/11 10:50:00;;;;;;;2.03;1.50;;;16.70;98.00;;;;;;4995986;28;20452;-75
2024/03/11 10:52:34;;;;;;;1.80;1.57;;;16.90;97.80;;;;;;5011853;28;20558;-75
2024/03/11 10:55:05;;;;;;;2.87;1.60;;;17.10;97.90;;;;;;5012192;28;20463;-76
2024/03/11 10:57:39;;;;;;;2.63;1.50;;;17.00;98.00;;;;;;4995490;28;20483;-75
2024/03/11 11:00:11;;;;;;;1.70;1.40;;;16.40;96.20;;;;;;5012205;28;20918;-75
2024/03/11 11:02:41;;;;;;;2.27;1.47;;;15.80;97.70;;;;;;5012168;28;20463;-75
2024/03/11 11:05:10;;;;;;;2.07;1.40;;;15.30;98.00;;;;;;5012236;28;20475;-75
2024/03/11 11:07:42;;;;;;;2.00;1.47;;;14.70;98.00;;;;;;4994824;28;20463;-75
2024/03/11 11:10:17;;;;;;;2.13;1.70;;;14.40;98.00;;;;;;5012068;28;20450;-74
2024/03/11 11:12:45;;;;;;;1.90;1.40;;;14.00;98.00;;;;;;5012129;28;20459;-74
2024/03/11 11:15:15;;;;;;;1.60;1.40;;;14.30;98.00;;;;;;5012197;28;20460;-73
2024/03/11 11:17:43;;;;;;;2.10;1.50;;;14.90;97.80;;;;;;5011987;28;20534;-73
2024/03/11 11:22:57;;;;;;;2.87;1.73;;;16.00;96.70;;;;;;5011367;28;20544;-74
2024/03/11 11:25:34;;;;;;;1.50;1.30;;;16.60;96.20;;;;;;5012064;28;20957;-74
2024/03/11 11:28:02;;;;;;;1.63;1.50;;;17.30;95.20;;;;;;4994547;28;20547;-74
2024/03/11 11:30:30;;;;;;;1.30;1.30;;;17.80;95.00;;;;;;5011898;28;20456;-74
2024/03/11 11:32:57;;;;;;;1.43;1.40;;;18.20;92.40;;;;;;5011819;28;20996;-74
2024/03/11 11:35:34;;;;;;;3.20;1.97;;;18.40;92.20;;;;;;5012064;28;20451;-74
2024/03/11 11:38:29;;;;;;;3.40;1.43;;;18.10;92.30;;;;;;5011709;28;20831;-74
2024/03/11 11:40:58;;;;;;;1.73;1.43;;;17.20;93.00;;;;;;5011756;28;20514;-76
2024/03/11 11:43:45;;;;;;;2.80;1.60;;;16.40;93.30;;;;;;5011918;28;20455;-76
2024/03/11 11:46:42;;;;;;;2.10;1.67;;;15.90;96.00;;;;;;5011777;28;20450;-76
2024/03/11 11:49:16;;;;;;;1.77;1.47;;;15.50;97.50;;;;;;5011900;28;20467;-76
2024/03/11 11:51:45;;;;;;;1.47;1.37;;;15.20;98.00;;;;;;5011804;28;20952;-76
2024/03/11 11:54:22;;;;;;;2.07;1.70;;;15.50;98.00;;;;;;5011912;28;20701;-76
2024/03/11 11:56:49;;;;;;;2.10;1.57;;;15.80;96.70;;;;;;5011737;28;21045;-76
2024/03/11 11:59:20;;;;;;;1.50;1.40;;;16.60;94.50;;;;;;5011940;28;20459;-75
2024/03/11 12:01:48;;;;;;;4.00;1.63;;;17.40;93.40;;;;;;5011444;28;20498;-77
2024/03/11 12:04:15;;;;;;;1.70;1.50;;;18.00;92.50;;;;;;5014604;28;20451;-75
2024/03/11 12:06:43;;;;;;;1.60;1.50;;;18.40;90.60;;;;;;5014960;28;20467;-76
2024/03/11 12:09:12;;;;;;;1.67;1.50;;;18.80;85.80;;;;;;5014809;28;20934;-76
2024/03/11 12:11:45;;;;;;;1.70;1.40;;;18.70;86.30;;;;;;5015194;28;20455;-76
2024/03/11 12:14:15;;;;;;;7.03;1.90;;;18.80;86.80;;;;;;5015098;28;20933;-76
2024/03/11 12:16:43;;;;;;;2.80;1.60;;;18.90;87.60;;;;;;5014670;28;20456;-76
2024/03/11 12:19:10;;;;;;;2.40;1.50;;;19.20;86.60;;;;;;5014859;28;20459;-77
2024/03/11 12:21:42;;;;;;;1.70;1.60;;;18.80;86.10;;;;;;5014532;28;20522;-76
2024/03/11 12:24:16;;;;;;;2.10;1.73;;;18.40;87.90;;;;;;5014056;28;20877;-77
2024/03/11 12:26:47;;;;;;;1.80;1.70;;;17.60;90.10;;;;;;5014005;28;20540;-76
2024/03/11 12:29:16;;;;;;;2.03;1.60;;;17.20;91.30;;;;;;5013976;28;20483;-77
2024/03/11 12:32:04;;;;;;;1.53;1.40;;;16.80;91.10;;;;;;5014454;28;20513;-77
2024/03/11 12:34:33;;;;;;;1.57;1.50;;;16.60;93.00;;;;;;5014795;28;20958;-76
2024/03/11 12:37:09;;;;;;;2.80;1.70;;;16.40;92.60;;;;;;5014438;28;20486;-77
2024/03/11 12:39:42;;;;;;;1.80;1.60;;;16.90;94.20;;;;;;5014798;28;20654;-77
2024/03/11 12:42:11;;;;;;;1.47;1.47;;;16.80;92.60;;;;;;5014210;28;20466;-77
2024/03/11 12:44:39;;;;;;;1.80;1.50;;;16.40;93.10;;;;;;5014425;28;20463;-77
2024/03/11 12:47:06;;;;;;;5.00;1.60;;;16.10;93.80;;;;;;5014320;28;20456;-77
2024/03/11 12:49:33;;;;;;;3.10;1.77;;;15.80;94.80;;;;;;5014449;28;20452;-76
2024/03/11 12:52:08;;;;;;;2.23;1.53;;;15.60;95.10;;;;;;5014009;28;20814;-77
2024/03/11 12:54:37;;;;;;;1.83;1.47;;;15.60;95.80;;;;;;5014353;28;20458;-77
2024/03/11 12:57:05;;;;;;;1.63;1.60;;;15.50;97.30;;;;;;5013778;28;20954;-78
2024/03/11 12:59:34;;;;;;;1.73;1.40;;;15.40;97.10;;;;;;5014111;28;20901;-79
2024/03/11 13:02:17;;;;;;;1.50;1.40;;;15.20;96.70;;;;;;5013900;28;20459;-78
2024/03/11 13:04:46;;;;;;;1.90;1.33;;;15.10;97.40;;;;;;5014210;28;20509;-77